sensor_id;sensor_type;location;lat;lon;timestamp;temperature;humidity
53711;DHT22;39605;52.704;6.752;2022-09-11T00:01:08;14.30;99.90
53711;DHT22;39605;52.704;6.752;2022-09-11T00:03:34;14.30;99.90
53711;DHT22;39605;52.704;6.752;2022-09-11T00:06:05;14.30;99.90
53711;DHT22;39605;52.704;6.752;2022-09-11T00:08:31;14.20;99.90
53711;DHT22;39605;52.704;6.752;2022-09-11T00:11:09;14.20;99.90
53711;DHT22;39605;52.704;6.752;2022-09-11T00:13:38;14.20;99.90
53711;DHT22;39605;52.704;6.752;2022-09-11T00:16:06;14.20;99.90
53711;DHT22;39605;52.704;6.752;2022-09-11T00:18:32;14.10;99.90
53711;DHT22;39605;52.704;6.752;2022-09-11T00:21:03;14.10;99.90
53711;DHT22;39605;52.704;6.752;2022-09-11T00:23:29;14.00;99.90
53711;DHT22;39605;52.704;6.752;2022-09-11T00:26:02;14.00;99.90
53711;DHT22;39605;52.704;6.752;2022-09-11T00:28:29;14.00;99.90
53711;DHT22;39605;52.704;6.752;2022-09-11T00:31:00;14.00;99.90
53711;DHT22;39605;52.704;6.752;2022-09-11T00:33:27;14.00;99.90
53711;DHT22;39605;52.704;6.752;2022-09-11T00:35:57;14.00;99.90
53711;DHT22;39605;52.704;6.752;2022-09-11T00:38:25;14.00;99.90
53711;DHT22;39605;52.704;6.752;2022-09-11T00:40:53;13.80;99.90
53711;DHT22;39605;52.704;6.752;2022-09-11T00:43:20;13.80;99.90
53711;DHT22;39605;52.704;6.752;2022-09-11T00:45:51;13.90;99.90
53711;DHT22;39605;52.704;6.752;2022-09-11T00:48:20;13.80;99.90
53711;DHT22;39605;52.704;6.752;2022-09-11T00:50:47;13.80;99.90
53711;DHT22;39605;52.704;6.752;2022-09-11T00:53:16;13.70;99.90
53711;DHT22;39605;52.704;6.752;2022-09-11T00:55:48;13.70;99.90
53711;DHT22;39605;52.704;6.752;2022-09-11T00:58:18;13.70;99.90
53711;DHT22;39605;52.704;6.752;2022-09-11T01:00:45;13.70;99.90
53711;DHT22;39605;52.704;6.752;2022-09-11T01:03:12;13.70;99.90
53711;DHT22;39605;52.704;6.752;2022-09-11T01:05:40;13.70;99.90
53711;DHT22;39605;52.704;6.752;2022-09-11T01:08:07;13.70;99.90
53711;DHT22;39605;52.704;6.752;2022-09-11T01:13:09;13.70;99.90
53711;DHT22;39605;52.704;6.752;2022-09-11T01:15:57;13.70;99.90
53711;DHT22;39605;52.704;6.752;2022-09-11T01:18:50;13.60;99.90
53711;DHT22;39605;52.704;6.752;2022-09-11T01:24:52;13.50;99.90
53711;DHT22;39605;52.704;6.752;2022-09-11T01:27:53;13.50;99.90
53711;DHT22;39605;52.704;6.752;2022-09-11T01:30:34;13.50;99.90
53711;DHT22;39605;52.704;6.752;2022-09-11T01:36:05;13.50;99.90
53711;DHT22;39605;52.704;6.752;2022-09-11T01:38:54;13.50;99.90
53711;DHT22;39605;52.704;6.752;2022-09-11T01:41:29;13.50;99.90
53711;DHT22;39605;52.704;6.752;2022-09-11T01:44:00;13.50;99.90
53711;DHT22;39605;52.704;6.752;2022-09-11T01:46:35;13.50;99.90
53711;DHT22;39605;52.704;6.752;2022-09-11T01:49:09;13.40;99.90
53711;DHT22;39605;52.704;6.752;2022-09-11T01:51:39;13.50;99.90
53711;DHT22;39605;52.704;6.752;2022-09-11T01:54:13;13.40;99.90
53711;DHT22;39605;52.704;6.752;2022-09-11T01:56:51;13.40;99.90
53711;DHT22;39605;52.704;6.752;2022-09-11T01:59:19;13.40;99.90
53711;DHT22;39605;52.704;6.752;2022-09-11T02:01:49;13.40;99.90
53711;DHT22;39605;52.704;6.752;2022-09-11T02:04:21;13.40;99.90
53711;DHT22;39605;52.704;6.752;2022-09-11T02:06:56;13.30;99.90
53711;DHT22;39605;52.704;6.752;2022-09-11T02:09:27;13.30;99.90
53711;DHT22;39605;52.704;6.752;2022-09-11T02:11:56;13.40;99.90
53711;DHT22;39605;52.704;6.752;2022-09-11T02:14:29;13.40;99.90
53711;DHT22;39605;52.704;6.752;2022-09-11T02:19:50;13.40;99.90
53711;DHT22;39605;52.704;6.752;2022-09-11T02:22:18;13.30;99.90
53711;DHT22;39605;52.704;6.752;2022-09-11T02:24:44;13.30;99.90
53711;DHT22;39605;52.704;6.752;2022-09-11T02:27:13;13.30;99.90
53711;DHT22;39605;52.704;6.752;2022-09-11T02:29:41;13.30;99.90
53711;DHT22;39605;52.704;6.752;2022-09-11T02:32:07;13.30;99.90
53711;DHT22;39605;52.704;6.752;2022-09-11T02:34:37;13.30;99.90
53711;DHT22;39605;52.704;6.752;2022-09-11T02:49:01;13.30;99.90
53711;DHT22;39605;52.704;6.752;2022-09-11T02:51:37;13.20;99.90
53711;DHT22;39605;52.704;6.752;2022-09-11T02:56:54;13.20;99.90
53711;DHT22;39605;52.704;6.752;2022-09-11T03:00:02;13.20;99.90
53711;DHT22;39605;52.704;6.752;2022-09-11T03:02:20;13.20;99.90
53711;DHT22;39605;52.704;6.752;2022-09-11T03:04:47;13.20;99.90
53711;DHT22;39605;52.704;6.752;2022-09-11T03:07:13;13.20;99.90
53711;DHT22;39605;52.704;6.752;2022-09-11T03:09:38;13.20;99.90
53711;DHT22;39605;52.704;6.752;2022-09-11T03:12:04;13.10;99.90
53711;DHT22;39605;52.704;6.752;2022-09-11T03:14:30;13.10;99.90
53711;DHT22;39605;52.704;6.752;2022-09-11T03:16:56;13.10;99.90
53711;DHT22;39605;52.704;6.752;2022-09-11T03:19:22;13.10;99.90
53711;DHT22;39605;52.704;6.752;2022-09-11T03:21:47;13.10;99.90
53711;DHT22;39605;52.704;6.752;2022-09-11T03:24:18;13.10;99.90
53711;DHT22;39605;52.704;6.752;2022-09-11T03:26:44;13.10;99.90
53711;DHT22;39605;52.704;6.752;2022-09-11T03:29:10;13.10;99.90
53711;DHT22;39605;52.704;6.752;2022-09-11T03:31:36;13.10;99.90
53711;DHT22;39605;52.704;6.752;2022-09-11T03:34:01;13.00;99.90
53711;DHT22;39605;52.704;6.752;2022-09-11T03:36:27;13.00;99.90
53711;DHT22;39605;52.704;6.752;2022-09-11T03:38:53;13.00;99.90
53711;DHT22;39605;52.704;6.752;2022-09-11T03:41:20;13.10;99.90
53711;DHT22;39605;52.704;6.752;2022-09-11T03:43:46;13.00;99.90
53711;DHT22;39605;52.704;6.752;2022-09-11T03:46:11;13.00;99.90
53711;DHT22;39605;52.704;6.752;2022-09-11T03:48:37;12.90;99.90
53711;DHT22;39605;52.704;6.752;2022-09-11T03:51:03;12.90;99.90
53711;DHT22;39605;52.704;6.752;2022-09-11T03:53:30;12.90;99.90
53711;DHT22;39605;52.704;6.752;2022-09-11T03:56:00;12.90;99.90
53711;DHT22;39605;52.704;6.752;2022-09-11T03:58:28;12.90;99.90
53711;DHT22;39605;52.704;6.752;2022-09-11T04:00:54;12.80;99.90
53711;DHT22;39605;52.704;6.752;2022-09-11T04:03:20;12.80;99.90
53711;DHT22;39605;52.704;6.752;2022-09-11T04:05:58;12.80;99.90
53711;DHT22;39605;52.704;6.752;2022-09-11T04:08:24;12.70;99.90
53711;DHT22;39605;52.704;6.752;2022-09-11T04:10:55;12.80;99.90
53711;DHT22;39605;52.704;6.752;2022-09-11T04:13:28;12.70;99.90
53711;DHT22;39605;52.704;6.752;2022-09-11T04:16:01;12.70;99.90
53711;DHT22;39605;52.704;6.752;2022-09-11T04:18:28;12.60;99.90
53711;DHT22;39605;52.704;6.752;2022-09-11T04:20:55;12.70;99.90
53711;DHT22;39605;52.704;6.752;2022-09-11T04:23:21;12.60;99.90
53711;DHT22;39605;52.704;6.752;2022-09-11T04:25:46;12.60;99.90
53711;DHT22;39605;52.704;6.752;2022-09-11T04:28:12;12.60;99.90
53711;DHT22;39605;52.704;6.752;2022-09-11T04:30:38;12.50;99.90
53711;DHT22;39605;52.704;6.752;2022-09-11T04:33:05;12.50;99.90
53711;DHT22;39605;52.704;6.752;2022-09-11T04:35:31;12.60;99.90
53711;DHT22;39605;52.704;6.752;2022-09-11T04:37:57;12.60;99.90
53711;DHT22;39605;52.704;6.752;2022-09-11T04:40:31;12.70;99.90
53711;DHT22;39605;52.704;6.752;2022-09-11T04:42:57;12.70;99.90
53711;DHT22;39605;52.704;6.752;2022-09-11T04:45:22;12.60;99.90
53711;DHT22;39605;52.704;6.752;2022-09-11T04:47:48;12.50;99.90
53711;DHT22;39605;52.704;6.752;2022-09-11T04:50:17;12.50;99.90
53711;DHT22;39605;52.704;6.752;2022-09-11T04:52:46;12.50;99.90
53711;DHT22;39605;52.704;6.752;2022-09-11T04:55:11;12.50;99.90
53711;DHT22;39605;52.704;6.752;2022-09-11T04:57:37;12.50;99.90
53711;DHT22;39605;52.704;6.752;2022-09-11T05:00:05;12.50;99.90
53711;DHT22;39605;52.704;6.752;2022-09-11T05:02:33;12.50;99.90
53711;DHT22;39605;52.704;6.752;2022-09-11T05:05:00;12.60;99.90
53711;DHT22;39605;52.704;6.752;2022-09-11T05:07:26;12.50;99.90
53711;DHT22;39605;52.704;6.752;2022-09-11T05:09:51;12.50;99.90
53711;DHT22;39605;52.704;6.752;2022-09-11T05:12:20;12.50;99.90
53711;DHT22;39605;52.704;6.752;2022-09-11T05:14:46;12.50;99.90
53711;DHT22;39605;52.704;6.752;2022-09-11T05:17:12;12.50;99.90
53711;DHT22;39605;52.704;6.752;2022-09-11T05:19:38;12.40;99.90
53711;DHT22;39605;52.704;6.752;2022-09-11T05:22:05;12.40;99.90
53711;DHT22;39605;52.704;6.752;2022-09-11T05:24:30;12.40;99.90
53711;DHT22;39605;52.704;6.752;2022-09-11T05:26:59;12.40;99.90
53711;DHT22;39605;52.704;6.752;2022-09-11T05:29:25;12.40;99.90
53711;DHT22;39605;52.704;6.752;2022-09-11T05:31:55;12.50;99.90
53711;DHT22;39605;52.704;6.752;2022-09-11T05:34:24;12.40;99.90
53711;DHT22;39605;52.704;6.752;2022-09-11T05:36:56;12.50;99.90
53711;DHT22;39605;52.704;6.752;2022-09-11T05:39:22;12.50;99.90
53711;DHT22;39605;52.704;6.752;2022-09-11T05:41:52;12.50;99.90
53711;DHT22;39605;52.704;6.752;2022-09-11T05:44:18;12.50;99.90
53711;DHT22;39605;52.704;6.752;2022-09-11T05:46:44;12.50;99.90
53711;DHT22;39605;52.704;6.752;2022-09-11T05:49:10;12.50;99.90
53711;DHT22;39605;52.704;6.752;2022-09-11T05:51:36;12.50;99.90
53711;DHT22;39605;52.704;6.752;2022-09-11T05:54:03;12.50;99.90
53711;DHT22;39605;52.704;6.752;2022-09-11T05:56:28;12.50;99.90
53711;DHT22;39605;52.704;6.752;2022-09-11T05:58:54;12.50;99.90
53711;DHT22;39605;52.704;6.752;2022-09-11T06:01:22;12.50;99.90
53711;DHT22;39605;52.704;6.752;2022-09-11T06:03:49;12.60;99.90
53711;DHT22;39605;52.704;6.752;2022-09-11T06:06:16;12.60;99.90
53711;DHT22;39605;52.704;6.752;2022-09-11T06:08:42;12.60;99.90
53711;DHT22;39605;52.704;6.752;2022-09-11T06:11:09;12.80;99.90
53711;DHT22;39605;52.704;6.752;2022-09-11T06:13:40;12.70;99.90
53711;DHT22;39605;52.704;6.752;2022-09-11T06:16:10;12.70;99.90
53711;DHT22;39605;52.704;6.752;2022-09-11T06:18:36;12.70;99.90
53711;DHT22;39605;52.704;6.752;2022-09-11T06:21:05;12.80;99.90
53711;DHT22;39605;52.704;6.752;2022-09-11T06:23:32;12.80;99.90
53711;DHT22;39605;52.704;6.752;2022-09-11T06:26:03;12.80;99.90
53711;DHT22;39605;52.704;6.752;2022-09-11T06:28:29;12.80;99.90
53711;DHT22;39605;52.704;6.752;2022-09-11T06:30:55;12.90;99.90
53711;DHT22;39605;52.704;6.752;2022-09-11T06:33:20;13.00;99.90
53711;DHT22;39605;52.704;6.752;2022-09-11T06:35:59;13.00;99.90
53711;DHT22;39605;52.704;6.752;2022-09-11T06:38:26;13.10;99.90
53711;DHT22;39605;52.704;6.752;2022-09-11T06:40:52;13.20;99.90
53711;DHT22;39605;52.704;6.752;2022-09-11T06:43:18;13.30;99.90
53711;DHT22;39605;52.704;6.752;2022-09-11T06:45:44;13.40;99.90
53711;DHT22;39605;52.704;6.752;2022-09-11T06:48:14;13.50;99.90
53711;DHT22;39605;52.704;6.752;2022-09-11T06:50:39;13.50;99.90
53711;DHT22;39605;52.704;6.752;2022-09-11T06:53:06;13.60;99.90
53711;DHT22;39605;52.704;6.752;2022-09-11T06:55:32;13.80;99.90
53711;DHT22;39605;52.704;6.752;2022-09-11T06:57:58;13.90;99.90
53711;DHT22;39605;52.704;6.752;2022-09-11T07:00:27;14.00;99.90
53711;DHT22;39605;52.704;6.752;2022-09-11T07:02:53;14.10;99.90
53711;DHT22;39605;52.704;6.752;2022-09-11T07:05:20;14.30;99.90
53711;DHT22;39605;52.704;6.752;2022-09-11T07:07:54;14.50;99.90
53711;DHT22;39605;52.704;6.752;2022-09-11T07:10:21;14.60;99.90
53711;DHT22;39605;52.704;6.752;2022-09-11T07:12:47;14.70;99.90
53711;DHT22;39605;52.704;6.752;2022-09-11T07:15:13;14.80;99.90
53711;DHT22;39605;52.704;6.752;2022-09-11T07:17:38;14.90;99.90
53711;DHT22;39605;52.704;6.752;2022-09-11T07:20:06;15.10;99.90
53711;DHT22;39605;52.704;6.752;2022-09-11T07:22:33;15.20;99.90
53711;DHT22;39605;52.704;6.752;2022-09-11T07:24:59;15.30;99.90
53711;DHT22;39605;52.704;6.752;2022-09-11T07:27:26;15.40;99.90
53711;DHT22;39605;52.704;6.752;2022-09-11T07:29:52;15.50;99.90
53711;DHT22;39605;52.704;6.752;2022-09-11T07:32:17;15.70;99.90
53711;DHT22;39605;52.704;6.752;2022-09-11T07:34:43;16.00;99.90
53711;DHT22;39605;52.704;6.752;2022-09-11T07:37:12;16.10;99.90
53711;DHT22;39605;52.704;6.752;2022-09-11T07:39:37;16.20;99.90
53711;DHT22;39605;52.704;6.752;2022-09-11T07:42:03;16.40;99.90
53711;DHT22;39605;52.704;6.752;2022-09-11T07:44:29;16.40;99.90
53711;DHT22;39605;52.704;6.752;2022-09-11T07:46:54;16.50;99.90
53711;DHT22;39605;52.704;6.752;2022-09-11T07:49:20;16.60;99.90
53711;DHT22;39605;52.704;6.752;2022-09-11T07:51:46;16.50;99.90
53711;DHT22;39605;52.704;6.752;2022-09-11T07:54:11;16.60;99.90
53711;DHT22;39605;52.704;6.752;2022-09-11T07:56:37;16.50;99.90
53711;DHT22;39605;52.704;6.752;2022-09-11T07:59:06;16.60;99.90
53711;DHT22;39605;52.704;6.752;2022-09-11T08:01:32;16.70;99.90
53711;DHT22;39605;52.704;6.752;2022-09-11T08:04:04;16.80;99.90
53711;DHT22;39605;52.704;6.752;2022-09-11T08:06:33;16.90;99.90
53711;DHT22;39605;52.704;6.752;2022-09-11T08:09:02;16.90;99.90
53711;DHT22;39605;52.704;6.752;2022-09-11T08:11:34;16.90;99.90
53711;DHT22;39605;52.704;6.752;2022-09-11T08:14:00;17.00;99.90
53711;DHT22;39605;52.704;6.752;2022-09-11T08:16:27;17.10;99.90
53711;DHT22;39605;52.704;6.752;2022-09-11T08:18:53;17.10;99.90
53711;DHT22;39605;52.704;6.752;2022-09-11T08:21:20;17.20;99.90
53711;DHT22;39605;52.704;6.752;2022-09-11T08:23:49;17.20;99.90
53711;DHT22;39605;52.704;6.752;2022-09-11T08:26:24;17.30;99.90
53711;DHT22;39605;52.704;6.752;2022-09-11T08:28:52;17.30;99.90
53711;DHT22;39605;52.704;6.752;2022-09-11T08:31:20;17.40;99.90
53711;DHT22;39605;52.704;6.752;2022-09-11T08:33:47;17.50;99.90
53711;DHT22;39605;52.704;6.752;2022-09-11T08:36:14;17.60;99.90
53711;DHT22;39605;52.704;6.752;2022-09-11T08:38:44;17.70;99.90
53711;DHT22;39605;52.704;6.752;2022-09-11T08:44:23;17.90;99.90
53711;DHT22;39605;52.704;6.752;2022-09-11T08:46:58;18.10;99.90
53711;DHT22;39605;52.704;6.752;2022-09-11T08:49:41;18.20;99.90
53711;DHT22;39605;52.704;6.752;2022-09-11T08:52:13;18.30;99.90
53711;DHT22;39605;52.704;6.752;2022-09-11T08:54:40;18.30;99.90
53711;DHT22;39605;52.704;6.752;2022-09-11T09:19:16;19.10;99.90
53711;DHT22;39605;52.704;6.752;2022-09-11T09:21:57;19.50;99.90
53711;DHT22;39605;52.704;6.752;2022-09-11T09:24:28;19.80;99.90
53711;DHT22;39605;52.704;6.752;2022-09-11T09:26:55;20.20;99.90
53711;DHT22;39605;52.704;6.752;2022-09-11T09:29:25;20.50;99.90
53711;DHT22;39605;52.704;6.752;2022-09-11T09:31:57;20.60;99.90
53711;DHT22;39605;52.704;6.752;2022-09-11T09:34:25;20.80;99.90
53711;DHT22;39605;52.704;6.752;2022-09-11T09:37:21;20.60;99.90
53711;DHT22;39605;52.704;6.752;2022-09-11T09:39:48;20.40;99.90
53711;DHT22;39605;52.704;6.752;2022-09-11T09:47:23;19.90;99.90
53711;DHT22;39605;52.704;6.752;2022-09-11T09:49:49;19.70;99.90
53711;DHT22;39605;52.704;6.752;2022-09-11T09:52:19;19.70;99.90
53711;DHT22;39605;52.704;6.752;2022-09-11T09:55:20;19.60;99.90
53711;DHT22;39605;52.704;6.752;2022-09-11T09:57:48;19.60;99.90
53711;DHT22;39605;52.704;6.752;2022-09-11T10:00:17;19.80;99.90
53711;DHT22;39605;52.704;6.752;2022-09-11T10:05:27;20.20;99.90
53711;DHT22;39605;52.704;6.752;2022-09-11T10:07:59;20.30;99.90
53711;DHT22;39605;52.704;6.752;2022-09-11T10:10:33;20.10;99.90
53711;DHT22;39605;52.704;6.752;2022-09-11T10:13:21;19.90;99.90
53711;DHT22;39605;52.704;6.752;2022-09-11T10:15:50;19.70;99.90
53711;DHT22;39605;52.704;6.752;2022-09-11T10:23:46;19.40;99.90
53711;DHT22;39605;52.704;6.752;2022-09-11T10:31:46;20.10;99.90
53711;DHT22;39605;52.704;6.752;2022-09-11T10:34:18;20.30;99.90
53711;DHT22;39605;52.704;6.752;2022-09-11T10:36:54;20.60;99.90
53711;DHT22;39605;52.704;6.752;2022-09-11T10:39:23;21.20;99.90
53711;DHT22;39605;52.704;6.752;2022-09-11T10:41:51;21.70;99.90
53711;DHT22;39605;52.704;6.752;2022-09-11T10:44:19;22.00;99.90
53711;DHT22;39605;52.704;6.752;2022-09-11T10:49:42;22.30;99.90
53711;DHT22;39605;52.704;6.752;2022-09-11T11:02:42;22.00;99.90
53711;DHT22;39605;52.704;6.752;2022-09-11T11:05:29;21.70;99.90
53711;DHT22;39605;52.704;6.752;2022-09-11T11:14:12;21.10;99.90
53711;DHT22;39605;52.704;6.752;2022-09-11T11:17:16;20.90;99.90
53711;DHT22;39605;52.704;6.752;2022-09-11T11:23:15;20.50;99.90
53711;DHT22;39605;52.704;6.752;2022-09-11T11:36:54;20.00;99.90
53711;DHT22;39605;52.704;6.752;2022-09-11T11:39:32;20.00;99.90
53711;DHT22;39605;52.704;6.752;2022-09-11T11:42:19;19.90;99.90
53711;DHT22;39605;52.704;6.752;2022-09-11T11:44:54;19.90;99.90
53711;DHT22;39605;52.704;6.752;2022-09-11T11:47:31;19.90;99.90
53711;DHT22;39605;52.704;6.752;2022-09-11T11:50:08;19.80;99.90
53711;DHT22;39605;52.704;6.752;2022-09-11T11:55:17;19.70;99.90
53711;DHT22;39605;52.704;6.752;2022-09-11T12:00:35;19.80;99.90
53711;DHT22;39605;52.704;6.752;2022-09-11T12:03:14;19.70;99.90
53711;DHT22;39605;52.704;6.752;2022-09-11T12:05:42;19.70;99.90
53711;DHT22;39605;52.704;6.752;2022-09-11T12:08:15;19.70;99.90
53711;DHT22;39605;52.704;6.752;2022-09-11T12:11:03;19.70;99.90
53711;DHT22;39605;52.704;6.752;2022-09-11T12:13:35;19.80;99.90
53711;DHT22;39605;52.704;6.752;2022-09-11T12:18:35;19.90;99.90
53711;DHT22;39605;52.704;6.752;2022-09-11T12:26:19;20.90;99.90
53711;DHT22;39605;52.704;6.752;2022-09-11T12:28:47;21.20;99.90
53711;DHT22;39605;52.704;6.752;2022-09-11T12:31:16;21.60;99.90
53711;DHT22;39605;52.704;6.752;2022-09-11T12:36:18;22.00;99.90
53711;DHT22;39605;52.704;6.752;2022-09-11T12:38:59;22.20;99.90
53711;DHT22;39605;52.704;6.752;2022-09-11T12:43:55;22.70;99.90
53711;DHT22;39605;52.704;6.752;2022-09-11T12:48:49;22.90;99.90
53711;DHT22;39605;52.704;6.752;2022-09-11T12:51:25;23.00;99.90
53711;DHT22;39605;52.704;6.752;2022-09-11T12:53:59;23.00;99.90
53711;DHT22;39605;52.704;6.752;2022-09-11T12:56:28;23.00;99.90
53711;DHT22;39605;52.704;6.752;2022-09-11T12:59:00;23.00;99.90
53711;DHT22;39605;52.704;6.752;2022-09-11T13:01:31;23.00;99.90
53711;DHT22;39605;52.704;6.752;2022-09-11T13:06:50;23.20;99.90
53711;DHT22;39605;52.704;6.752;2022-09-11T13:09:33;23.30;99.90
53711;DHT22;39605;52.704;6.752;2022-09-11T13:12:44;23.50;99.90
53711;DHT22;39605;52.704;6.752;2022-09-11T13:18:23;23.70;99.90
53711;DHT22;39605;52.704;6.752;2022-09-11T13:21:00;23.90;99.90
53711;DHT22;39605;52.704;6.752;2022-09-11T13:23:27;24.20;99.90
53711;DHT22;39605;52.704;6.752;2022-09-11T13:25:54;24.20;99.90
53711;DHT22;39605;52.704;6.752;2022-09-11T13:28:21;24.20;99.90
53711;DHT22;39605;52.704;6.752;2022-09-11T13:30:58;24.10;99.90
53711;DHT22;39605;52.704;6.752;2022-09-11T13:33:27;24.00;99.90
53711;DHT22;39605;52.704;6.752;2022-09-11T13:35:56;24.00;99.90
53711;DHT22;39605;52.704;6.752;2022-09-11T13:38:26;23.80;99.90
53711;DHT22;39605;52.704;6.752;2022-09-11T13:43:34;23.30;99.90
53711;DHT22;39605;52.704;6.752;2022-09-11T13:48:42;23.00;99.90
53711;DHT22;39605;52.704;6.752;2022-09-11T13:51:17;22.90;99.90
53711;DHT22;39605;52.704;6.752;2022-09-11T13:53:45;22.90;99.90
53711;DHT22;39605;52.704;6.752;2022-09-11T13:59:37;22.60;99.90
53711;DHT22;39605;52.704;6.752;2022-09-11T14:02:06;22.40;99.90
53711;DHT22;39605;52.704;6.752;2022-09-11T14:04:40;22.30;99.90
53711;DHT22;39605;52.704;6.752;2022-09-11T14:07:27;22.20;99.90
53711;DHT22;39605;52.704;6.752;2022-09-11T14:10:02;22.20;99.90
53711;DHT22;39605;52.704;6.752;2022-09-11T14:12:29;22.20;99.90
53711;DHT22;39605;52.704;6.752;2022-09-11T14:15:07;22.20;99.90
53711;DHT22;39605;52.704;6.752;2022-09-11T14:17:33;22.10;99.90
53711;DHT22;39605;52.704;6.752;2022-09-11T14:20:16;22.00;99.90
53711;DHT22;39605;52.704;6.752;2022-09-11T14:22:42;22.00;99.90
53711;DHT22;39605;52.704;6.752;2022-09-11T14:27:36;21.90;99.90
53711;DHT22;39605;52.704;6.752;2022-09-11T14:30:33;21.80;99.90
53711;DHT22;39605;52.704;6.752;2022-09-11T14:33:25;21.80;99.90
53711;DHT22;39605;52.704;6.752;2022-09-11T14:35:53;21.80;99.90
53711;DHT22;39605;52.704;6.752;2022-09-11T14:38:25;21.80;99.90
53711;DHT22;39605;52.704;6.752;2022-09-11T14:40:58;21.70;99.90
53711;DHT22;39605;52.704;6.752;2022-09-11T14:43:29;21.80;99.90
53711;DHT22;39605;52.704;6.752;2022-09-11T14:46:00;21.80;99.90
53711;DHT22;39605;52.704;6.752;2022-09-11T14:48:32;21.70;99.90
53711;DHT22;39605;52.704;6.752;2022-09-11T14:50:58;21.70;99.90
53711;DHT22;39605;52.704;6.752;2022-09-11T14:53:30;21.70;99.90
53711;DHT22;39605;52.704;6.752;2022-09-11T14:55:58;21.60;99.90
53711;DHT22;39605;52.704;6.752;2022-09-11T14:58:25;21.60;99.90
53711;DHT22;39605;52.704;6.752;2022-09-11T15:00:51;21.60;99.90
53711;DHT22;39605;52.704;6.752;2022-09-11T15:03:17;21.60;99.90
53711;DHT22;39605;52.704;6.752;2022-09-11T15:05:44;21.50;99.90
53711;DHT22;39605;52.704;6.752;2022-09-11T15:08:11;21.50;99.90
53711;DHT22;39605;52.704;6.752;2022-09-11T15:10:37;21.50;99.90
53711;DHT22;39605;52.704;6.752;2022-09-11T15:13:02;21.60;99.90
53711;DHT22;39605;52.704;6.752;2022-09-11T15:15:28;21.70;99.90
53711;DHT22;39605;52.704;6.752;2022-09-11T15:17:55;21.70;99.90
53711;DHT22;39605;52.704;6.752;2022-09-11T15:20:22;21.70;99.90
53711;DHT22;39605;52.704;6.752;2022-09-11T15:22:49;21.50;99.90
53711;DHT22;39605;52.704;6.752;2022-09-11T15:25:15;21.40;99.90
53711;DHT22;39605;52.704;6.752;2022-09-11T15:27:41;21.30;99.90
53711;DHT22;39605;52.704;6.752;2022-09-11T15:30:07;21.20;99.90
53711;DHT22;39605;52.704;6.752;2022-09-11T15:32:33;21.00;99.90
53711;DHT22;39605;52.704;6.752;2022-09-11T15:34:58;21.00;99.90
53711;DHT22;39605;52.704;6.752;2022-09-11T15:37:24;20.90;99.90
53711;DHT22;39605;52.704;6.752;2022-09-11T15:39:50;20.80;99.90
53711;DHT22;39605;52.704;6.752;2022-09-11T15:42:16;20.80;99.90
53711;DHT22;39605;52.704;6.752;2022-09-11T15:44:42;20.70;99.90
53711;DHT22;39605;52.704;6.752;2022-09-11T15:47:08;20.70;99.90
53711;DHT22;39605;52.704;6.752;2022-09-11T15:49:39;20.70;99.90
53711;DHT22;39605;52.704;6.752;2022-09-11T15:52:05;20.70;99.90
53711;DHT22;39605;52.704;6.752;2022-09-11T15:54:31;20.60;99.90
53711;DHT22;39605;52.704;6.752;2022-09-11T15:56:57;20.60;99.90
53711;DHT22;39605;52.704;6.752;2022-09-11T15:59:22;20.60;99.90
53711;DHT22;39605;52.704;6.752;2022-09-11T16:01:48;20.60;99.90
53711;DHT22;39605;52.704;6.752;2022-09-11T16:04:16;20.50;99.90
53711;DHT22;39605;52.704;6.752;2022-09-11T16:06:48;20.40;99.90
53711;DHT22;39605;52.704;6.752;2022-09-11T16:09:33;20.40;99.90
53711;DHT22;39605;52.704;6.752;2022-09-11T16:11:59;20.30;99.90
53711;DHT22;39605;52.704;6.752;2022-09-11T16:14:32;20.30;99.90
53711;DHT22;39605;52.704;6.752;2022-09-11T16:17:01;20.30;99.90
53711;DHT22;39605;52.704;6.752;2022-09-11T16:19:28;20.30;99.90
53711;DHT22;39605;52.704;6.752;2022-09-11T16:21:55;20.30;99.90
53711;DHT22;39605;52.704;6.752;2022-09-11T16:24:23;20.30;99.90
53711;DHT22;39605;52.704;6.752;2022-09-11T16:26:50;20.30;99.90
53711;DHT22;39605;52.704;6.752;2022-09-11T16:29:15;20.40;99.90
53711;DHT22;39605;52.704;6.752;2022-09-11T16:31:42;20.40;99.90
53711;DHT22;39605;52.704;6.752;2022-09-11T16:34:11;20.40;99.90
53711;DHT22;39605;52.704;6.752;2022-09-11T16:36:40;20.40;99.90
53711;DHT22;39605;52.704;6.752;2022-09-11T16:39:07;20.50;99.90
53711;DHT22;39605;52.704;6.752;2022-09-11T16:41:34;20.50;99.90
53711;DHT22;39605;52.704;6.752;2022-09-11T16:44:02;20.50;99.90
53711;DHT22;39605;52.704;6.752;2022-09-11T16:46:31;20.60;99.90
53711;DHT22;39605;52.704;6.752;2022-09-11T16:48:58;20.60;99.90
53711;DHT22;39605;52.704;6.752;2022-09-11T16:51:24;20.60;99.90
53711;DHT22;39605;52.704;6.752;2022-09-11T16:53:50;20.60;99.90
53711;DHT22;39605;52.704;6.752;2022-09-11T16:56:19;20.60;99.90
53711;DHT22;39605;52.704;6.752;2022-09-11T16:58:45;20.50;99.90
53711;DHT22;39605;52.704;6.752;2022-09-11T17:01:17;20.50;99.90
53711;DHT22;39605;52.704;6.752;2022-09-11T17:03:47;20.40;99.90
53711;DHT22;39605;52.704;6.752;2022-09-11T17:06:15;20.40;99.90
53711;DHT22;39605;52.704;6.752;2022-09-11T17:08:41;20.40;99.90
53711;DHT22;39605;52.704;6.752;2022-09-11T17:11:11;20.30;99.90
53711;DHT22;39605;52.704;6.752;2022-09-11T17:13:39;20.30;99.90
53711;DHT22;39605;52.704;6.752;2022-09-11T17:16:07;20.20;99.90
53711;DHT22;39605;52.704;6.752;2022-09-11T17:18:33;20.10;99.90
53711;DHT22;39605;52.704;6.752;2022-09-11T17:21:03;20.00;99.90
53711;DHT22;39605;52.704;6.752;2022-09-11T17:23:31;19.90;99.90
53711;DHT22;39605;52.704;6.752;2022-09-11T17:25:57;19.90;99.90
53711;DHT22;39605;52.704;6.752;2022-09-11T17:28:23;19.80;99.90
53711;DHT22;39605;52.704;6.752;2022-09-11T17:30:49;19.70;99.90
53711;DHT22;39605;52.704;6.752;2022-09-11T17:33:15;19.60;99.90
53711;DHT22;39605;52.704;6.752;2022-09-11T17:35:42;19.50;99.90
53711;DHT22;39605;52.704;6.752;2022-09-11T17:38:08;19.40;99.90
53711;DHT22;39605;52.704;6.752;2022-09-11T17:40:34;19.30;99.90
53711;DHT22;39605;52.704;6.752;2022-09-11T17:43:00;19.20;99.90
53711;DHT22;39605;52.704;6.752;2022-09-11T17:45:26;19.20;99.90
53711;DHT22;39605;52.704;6.752;2022-09-11T17:47:52;19.10;99.90
53711;DHT22;39605;52.704;6.752;2022-09-11T17:50:18;19.00;99.90
53711;DHT22;39605;52.704;6.752;2022-09-11T17:52:44;19.00;99.90
53711;DHT22;39605;52.704;6.752;2022-09-11T17:55:10;18.90;99.90
53711;DHT22;39605;52.704;6.752;2022-09-11T17:57:36;18.90;99.90
53711;DHT22;39605;52.704;6.752;2022-09-11T18:00:05;18.80;99.90
53711;DHT22;39605;52.704;6.752;2022-09-11T18:02:31;18.80;99.90
53711;DHT22;39605;52.704;6.752;2022-09-11T18:04:57;18.70;99.90
53711;DHT22;39605;52.704;6.752;2022-09-11T18:07:22;18.70;99.90